sensor_id;sensor_type;location;lat;lon;timestamp;temperature;humidity
11122;DHT22;5615;49.304;10.576;2022-08-03T00:01:01;16.80;99.90
11122;DHT22;5615;49.304;10.576;2022-08-03T00:03:28;16.70;99.90
11122;DHT22;5615;49.304;10.576;2022-08-03T00:05:55;16.60;99.90
11122;DHT22;5615;49.304;10.576;2022-08-03T00:08:21;16.60;99.90
11122;DHT22;5615;49.304;10.576;2022-08-03T00:10:48;16.50;99.90
11122;DHT22;5615;49.304;10.576;2022-08-03T00:13:16;16.50;99.90
11122;DHT22;5615;49.304;10.576;2022-08-03T00:15:44;16.40;99.90
11122;DHT22;5615;49.304;10.576;2022-08-03T00:18:10;16.40;99.90
11122;DHT22;5615;49.304;10.576;2022-08-03T00:20:37;16.40;99.90
11122;DHT22;5615;49.304;10.576;2022-08-03T00:23:04;16.40;99.90
11122;DHT22;5615;49.304;10.576;2022-08-03T00:25:31;16.40;99.90
11122;DHT22;5615;49.304;10.576;2022-08-03T00:27:58;16.30;99.90
11122;DHT22;5615;49.304;10.576;2022-08-03T00:30:26;16.50;99.90
11122;DHT22;5615;49.304;10.576;2022-08-03T00:32:53;16.70;99.90
11122;DHT22;5615;49.304;10.576;2022-08-03T00:35:19;16.80;99.90
11122;DHT22;5615;49.304;10.576;2022-08-03T00:37:46;16.80;99.90
11122;DHT22;5615;49.304;10.576;2022-08-03T00:40:14;16.80;99.90
11122;DHT22;5615;49.304;10.576;2022-08-03T00:42:49;16.60;99.90
11122;DHT22;5615;49.304;10.576;2022-08-03T00:45:18;16.70;99.90
11122;DHT22;5615;49.304;10.576;2022-08-03T00:47:47;16.60;99.90
11122;DHT22;5615;49.304;10.576;2022-08-03T00:50:14;16.50;99.90
11122;DHT22;5615;49.304;10.576;2022-08-03T00:52:41;16.40;99.90
11122;DHT22;5615;49.304;10.576;2022-08-03T00:55:09;16.30;99.90
11122;DHT22;5615;49.304;10.576;2022-08-03T00:57:36;16.30;99.90
11122;DHT22;5615;49.304;10.576;2022-08-03T01:00:04;16.20;99.90
11122;DHT22;5615;49.304;10.576;2022-08-03T01:02:31;16.20;99.90
11122;DHT22;5615;49.304;10.576;2022-08-03T01:04:59;16.20;99.90
11122;DHT22;5615;49.304;10.576;2022-08-03T01:07:36;16.10;99.90
11122;DHT22;5615;49.304;10.576;2022-08-03T01:10:09;16.10;99.90
11122;DHT22;5615;49.304;10.576;2022-08-03T01:12:46;16.00;99.90
11122;DHT22;5615;49.304;10.576;2022-08-03T01:15:20;16.00;99.90
11122;DHT22;5615;49.304;10.576;2022-08-03T01:17:55;15.80;99.90
11122;DHT22;5615;49.304;10.576;2022-08-03T01:20:26;15.80;99.90
11122;DHT22;5615;49.304;10.576;2022-08-03T01:23:05;15.70;99.90
11122;DHT22;5615;49.304;10.576;2022-08-03T01:25:50;15.70;99.90
11122;DHT22;5615;49.304;10.576;2022-08-03T01:28:43;15.80;99.90
11122;DHT22;5615;49.304;10.576;2022-08-03T01:31:19;15.70;99.90
11122;DHT22;5615;49.304;10.576;2022-08-03T01:33:51;15.60;99.90
11122;DHT22;5615;49.304;10.576;2022-08-03T01:36:23;15.50;99.90
11122;DHT22;5615;49.304;10.576;2022-08-03T01:38:54;15.50;99.90
11122;DHT22;5615;49.304;10.576;2022-08-03T01:41:24;15.40;99.90
11122;DHT22;5615;49.304;10.576;2022-08-03T01:43:52;15.40;99.90
11122;DHT22;5615;49.304;10.576;2022-08-03T01:46:21;15.50;99.90
11122;DHT22;5615;49.304;10.576;2022-08-03T01:48:50;15.60;99.90
11122;DHT22;5615;49.304;10.576;2022-08-03T01:51:18;15.50;99.90
11122;DHT22;5615;49.304;10.576;2022-08-03T01:53:47;15.50;99.90
11122;DHT22;5615;49.304;10.576;2022-08-03T01:56:16;15.40;99.90
11122;DHT22;5615;49.304;10.576;2022-08-03T01:58:45;15.40;99.90
11122;DHT22;5615;49.304;10.576;2022-08-03T02:01:14;15.30;99.90
11122;DHT22;5615;49.304;10.576;2022-08-03T02:03:43;15.20;99.90
11122;DHT22;5615;49.304;10.576;2022-08-03T02:06:11;15.10;99.90
11122;DHT22;5615;49.304;10.576;2022-08-03T02:08:39;15.10;99.90
11122;DHT22;5615;49.304;10.576;2022-08-03T02:11:07;15.00;99.90
11122;DHT22;5615;49.304;10.576;2022-08-03T02:13:34;15.00;99.90
11122;DHT22;5615;49.304;10.576;2022-08-03T02:16:02;15.10;99.90
11122;DHT22;5615;49.304;10.576;2022-08-03T02:18:29;15.00;99.90
11122;DHT22;5615;49.304;10.576;2022-08-03T02:20:59;14.90;99.90
11122;DHT22;5615;49.304;10.576;2022-08-03T02:23:26;14.80;99.90
11122;DHT22;5615;49.304;10.576;2022-08-03T02:25:56;14.80;99.90
11122;DHT22;5615;49.304;10.576;2022-08-03T02:28:28;14.70;99.90
11122;DHT22;5615;49.304;10.576;2022-08-03T02:30:57;14.80;99.90
11122;DHT22;5615;49.304;10.576;2022-08-03T02:33:30;14.80;99.90
11122;DHT22;5615;49.304;10.576;2022-08-03T02:36:00;14.70;99.90
11122;DHT22;5615;49.304;10.576;2022-08-03T02:38:32;14.70;99.90
11122;DHT22;5615;49.304;10.576;2022-08-03T02:41:00;14.70;99.90
11122;DHT22;5615;49.304;10.576;2022-08-03T02:43:29;14.70;99.90
11122;DHT22;5615;49.304;10.576;2022-08-03T02:45:57;14.60;99.90
11122;DHT22;5615;49.304;10.576;2022-08-03T02:48:27;14.60;99.90
11122;DHT22;5615;49.304;10.576;2022-08-03T02:50:57;14.70;99.90
11122;DHT22;5615;49.304;10.576;2022-08-03T02:53:25;14.60;99.90
11122;DHT22;5615;49.304;10.576;2022-08-03T02:55:53;14.60;99.90
11122;DHT22;5615;49.304;10.576;2022-08-03T02:58:22;14.60;99.90
11122;DHT22;5615;49.304;10.576;2022-08-03T03:00:51;14.60;99.90
11122;DHT22;5615;49.304;10.576;2022-08-03T03:03:18;14.60;99.90
11122;DHT22;5615;49.304;10.576;2022-08-03T03:05:46;14.60;99.90
11122;DHT22;5615;49.304;10.576;2022-08-03T03:08:15;14.50;99.90
11122;DHT22;5615;49.304;10.576;2022-08-03T03:10:44;14.60;99.90
11122;DHT22;5615;49.304;10.576;2022-08-03T03:13:12;14.60;99.90
11122;DHT22;5615;49.304;10.576;2022-08-03T03:15:41;14.70;99.90
11122;DHT22;5615;49.304;10.576;2022-08-03T03:18:09;14.70;99.90
11122;DHT22;5615;49.304;10.576;2022-08-03T03:20:37;14.80;99.90
11122;DHT22;5615;49.304;10.576;2022-08-03T03:23:05;14.80;99.90
11122;DHT22;5615;49.304;10.576;2022-08-03T03:25:33;14.70;99.90
11122;DHT22;5615;49.304;10.576;2022-08-03T03:28:02;14.60;99.90
11122;DHT22;5615;49.304;10.576;2022-08-03T03:30:29;14.60;99.90
11122;DHT22;5615;49.304;10.576;2022-08-03T03:32:56;14.50;99.90
11122;DHT22;5615;49.304;10.576;2022-08-03T03:35:24;14.50;99.90
11122;DHT22;5615;49.304;10.576;2022-08-03T03:37:51;14.50;99.90
11122;DHT22;5615;49.304;10.576;2022-08-03T03:40:18;14.50;99.90
11122;DHT22;5615;49.304;10.576;2022-08-03T03:42:44;14.40;99.90
11122;DHT22;5615;49.304;10.576;2022-08-03T03:45:13;14.40;99.90
11122;DHT22;5615;49.304;10.576;2022-08-03T03:47:40;14.40;99.90
11122;DHT22;5615;49.304;10.576;2022-08-03T03:50:08;14.40;99.90
11122;DHT22;5615;49.304;10.576;2022-08-03T03:52:35;14.40;99.90
11122;DHT22;5615;49.304;10.576;2022-08-03T03:55:02;14.40;99.90
11122;DHT22;5615;49.304;10.576;2022-08-03T03:57:29;14.40;99.90
11122;DHT22;5615;49.304;10.576;2022-08-03T03:59:55;14.40;99.90
11122;DHT22;5615;49.304;10.576;2022-08-03T04:02:24;14.30;99.90
11122;DHT22;5615;49.304;10.576;2022-08-03T04:04:50;14.40;99.90
11122;DHT22;5615;49.304;10.576;2022-08-03T04:07:41;14.30;99.90
11122;DHT22;5615;49.304;10.576;2022-08-03T04:10:31;14.40;99.90
11122;DHT22;5615;49.304;10.576;2022-08-03T04:13:17;14.40;99.90
11122;DHT22;5615;49.304;10.576;2022-08-03T04:15:46;14.50;99.90
11122;DHT22;5615;49.304;10.576;2022-08-03T04:18:16;14.50;99.90
11122;DHT22;5615;49.304;10.576;2022-08-03T04:20:46;14.50;99.90
11122;DHT22;5615;49.304;10.576;2022-08-03T04:23:15;14.60;99.90
11122;DHT22;5615;49.304;10.576;2022-08-03T04:25:45;14.70;99.90
11122;DHT22;5615;49.304;10.576;2022-08-03T04:28:14;14.70;99.90
11122;DHT22;5615;49.304;10.576;2022-08-03T04:30:44;14.80;99.90
11122;DHT22;5615;49.304;10.576;2022-08-03T04:33:15;14.80;99.90
11122;DHT22;5615;49.304;10.576;2022-08-03T04:35:43;14.80;99.90
11122;DHT22;5615;49.304;10.576;2022-08-03T04:38:13;15.00;99.90
11122;DHT22;5615;49.304;10.576;2022-08-03T04:40:41;15.10;99.90
11122;DHT22;5615;49.304;10.576;2022-08-03T04:43:10;15.20;99.90
11122;DHT22;5615;49.304;10.576;2022-08-03T04:45:38;15.40;99.90
11122;DHT22;5615;49.304;10.576;2022-08-03T04:48:06;15.50;99.90
11122;DHT22;5615;49.304;10.576;2022-08-03T04:50:34;15.70;99.90
11122;DHT22;5615;49.304;10.576;2022-08-03T04:53:01;15.80;99.90
11122;DHT22;5615;49.304;10.576;2022-08-03T04:55:29;15.90;99.90
11122;DHT22;5615;49.304;10.576;2022-08-03T04:57:56;16.00;99.90
11122;DHT22;5615;49.304;10.576;2022-08-03T05:00:24;16.10;99.90
11122;DHT22;5615;49.304;10.576;2022-08-03T05:02:50;16.20;99.90
11122;DHT22;5615;49.304;10.576;2022-08-03T05:05:18;16.30;99.90
11122;DHT22;5615;49.304;10.576;2022-08-03T05:07:46;16.40;99.90
11122;DHT22;5615;49.304;10.576;2022-08-03T05:10:13;16.60;99.90
11122;DHT22;5615;49.304;10.576;2022-08-03T05:12:40;16.70;99.90
11122;DHT22;5615;49.304;10.576;2022-08-03T05:15:07;16.80;99.90
11122;DHT22;5615;49.304;10.576;2022-08-03T05:17:34;16.90;99.90
11122;DHT22;5615;49.304;10.576;2022-08-03T05:20:01;17.00;99.90
11122;DHT22;5615;49.304;10.576;2022-08-03T05:22:28;17.10;99.90
11122;DHT22;5615;49.304;10.576;2022-08-03T05:24:57;17.20;99.90
11122;DHT22;5615;49.304;10.576;2022-08-03T05:27:23;17.40;99.90
11122;DHT22;5615;49.304;10.576;2022-08-03T05:29:50;17.50;99.90
11122;DHT22;5615;49.304;10.576;2022-08-03T05:32:17;17.60;99.90
11122;DHT22;5615;49.304;10.576;2022-08-03T05:34:44;17.80;99.90
11122;DHT22;5615;49.304;10.576;2022-08-03T05:37:11;17.90;99.90
11122;DHT22;5615;49.304;10.576;2022-08-03T05:39:37;18.00;99.90
11122;DHT22;5615;49.304;10.576;2022-08-03T05:42:05;18.10;99.90
11122;DHT22;5615;49.304;10.576;2022-08-03T05:44:32;18.10;99.90
11122;DHT22;5615;49.304;10.576;2022-08-03T05:46:59;18.30;99.90
11122;DHT22;5615;49.304;10.576;2022-08-03T05:49:25;18.30;99.90
11122;DHT22;5615;49.304;10.576;2022-08-03T05:51:52;18.50;99.90
11122;DHT22;5615;49.304;10.576;2022-08-03T05:54:18;18.60;99.90
11122;DHT22;5615;49.304;10.576;2022-08-03T05:56:45;18.70;99.90
11122;DHT22;5615;49.304;10.576;2022-08-03T05:59:13;18.80;99.90
11122;DHT22;5615;49.304;10.576;2022-08-03T06:01:40;18.90;99.90
11122;DHT22;5615;49.304;10.576;2022-08-03T06:04:06;19.00;99.90
11122;DHT22;5615;49.304;10.576;2022-08-03T06:06:33;19.10;99.90
11122;DHT22;5615;49.304;10.576;2022-08-03T06:09:00;19.30;99.90
11122;DHT22;5615;49.304;10.576;2022-08-03T06:11:26;19.40;99.90
11122;DHT22;5615;49.304;10.576;2022-08-03T06:13:53;19.50;99.90
11122;DHT22;5615;49.304;10.576;2022-08-03T06:16:21;19.70;99.90
11122;DHT22;5615;49.304;10.576;2022-08-03T06:18:47;19.80;99.90
11122;DHT22;5615;49.304;10.576;2022-08-03T06:21:14;19.90;99.90
11122;DHT22;5615;49.304;10.576;2022-08-03T06:23:42;20.00;99.90
11122;DHT22;5615;49.304;10.576;2022-08-03T06:26:09;20.20;99.90
11122;DHT22;5615;49.304;10.576;2022-08-03T06:28:35;20.30;99.90
11122;DHT22;5615;49.304;10.576;2022-08-03T06:31:02;20.40;99.90
11122;DHT22;5615;49.304;10.576;2022-08-03T06:33:31;20.50;99.90
11122;DHT22;5615;49.304;10.576;2022-08-03T06:35:57;20.60;99.90
11122;DHT22;5615;49.304;10.576;2022-08-03T06:38:24;20.70;99.90
11122;DHT22;5615;49.304;10.576;2022-08-03T06:40:50;20.90;99.90
11122;DHT22;5615;49.304;10.576;2022-08-03T06:43:17;21.00;99.90
11122;DHT22;5615;49.304;10.576;2022-08-03T06:45:44;21.10;99.90
11122;DHT22;5615;49.304;10.576;2022-08-03T06:48:12;21.20;99.90
11122;DHT22;5615;49.304;10.576;2022-08-03T06:50:40;21.40;99.90
11122;DHT22;5615;49.304;10.576;2022-08-03T06:53:08;21.50;99.90
11122;DHT22;5615;49.304;10.576;2022-08-03T06:55:35;21.60;99.90
11122;DHT22;5615;49.304;10.576;2022-08-03T06:58:02;21.60;99.90
11122;DHT22;5615;49.304;10.576;2022-08-03T07:00:29;21.80;99.90
11122;DHT22;5615;49.304;10.576;2022-08-03T07:02:56;22.00;99.90
11122;DHT22;5615;49.304;10.576;2022-08-03T07:05:23;22.00;99.90
11122;DHT22;5615;49.304;10.576;2022-08-03T07:07:53;22.10;99.90
11122;DHT22;5615;49.304;10.576;2022-08-03T07:10:20;22.20;99.90
11122;DHT22;5615;49.304;10.576;2022-08-03T07:12:47;22.40;99.90
11122;DHT22;5615;49.304;10.576;2022-08-03T07:15:14;22.50;99.90
11122;DHT22;5615;49.304;10.576;2022-08-03T07:17:42;22.60;99.90
11122;DHT22;5615;49.304;10.576;2022-08-03T07:20:09;22.70;99.90
11122;DHT22;5615;49.304;10.576;2022-08-03T07:22:37;22.80;99.90
11122;DHT22;5615;49.304;10.576;2022-08-03T07:25:06;23.00;99.90
11122;DHT22;5615;49.304;10.576;2022-08-03T07:27:33;23.10;99.90
11122;DHT22;5615;49.304;10.576;2022-08-03T07:29:59;23.40;99.90
11122;DHT22;5615;49.304;10.576;2022-08-03T07:32:27;23.50;99.90
11122;DHT22;5615;49.304;10.576;2022-08-03T07:34:55;23.80;99.90
11122;DHT22;5615;49.304;10.576;2022-08-03T07:37:22;24.00;99.90
11122;DHT22;5615;49.304;10.576;2022-08-03T07:39:49;24.20;99.90
11122;DHT22;5615;49.304;10.576;2022-08-03T07:42:17;24.50;99.90
11122;DHT22;5615;49.304;10.576;2022-08-03T07:44:44;24.70;99.90
11122;DHT22;5615;49.304;10.576;2022-08-03T07:47:11;24.90;99.90
11122;DHT22;5615;49.304;10.576;2022-08-03T07:49:39;25.10;99.90
11122;DHT22;5615;49.304;10.576;2022-08-03T07:52:06;25.40;99.90
11122;DHT22;5615;49.304;10.576;2022-08-03T07:54:50;25.70;99.90
11122;DHT22;5615;49.304;10.576;2022-08-03T07:57:18;26.00;99.90
11122;DHT22;5615;49.304;10.576;2022-08-03T07:59:45;26.20;99.90
11122;DHT22;5615;49.304;10.576;2022-08-03T08:02:12;26.30;99.90
11122;DHT22;5615;49.304;10.576;2022-08-03T08:04:38;26.50;99.90
11122;DHT22;5615;49.304;10.576;2022-08-03T08:07:05;26.80;99.90
11122;DHT22;5615;49.304;10.576;2022-08-03T08:09:32;26.90;99.90
11122;DHT22;5615;49.304;10.576;2022-08-03T08:11:59;27.10;99.90
11122;DHT22;5615;49.304;10.576;2022-08-03T08:14:27;27.20;99.90
11122;DHT22;5615;49.304;10.576;2022-08-03T08:16:54;27.30;99.50
11122;DHT22;5615;49.304;10.576;2022-08-03T08:19:21;27.40;98.50
11122;DHT22;5615;49.304;10.576;2022-08-03T08:21:47;27.60;97.80
11122;DHT22;5615;49.304;10.576;2022-08-03T08:24:14;27.80;98.30
11122;DHT22;5615;49.304;10.576;2022-08-03T08:26:40;27.80;96.90
11122;DHT22;5615;49.304;10.576;2022-08-03T08:29:07;28.00;95.20
11122;DHT22;5615;49.304;10.576;2022-08-03T08:31:36;28.20;94.50
11122;DHT22;5615;49.304;10.576;2022-08-03T08:34:02;28.20;92.00
11122;DHT22;5615;49.304;10.576;2022-08-03T08:36:30;28.30;91.90
11122;DHT22;5615;49.304;10.576;2022-08-03T08:38:57;28.40;91.20
11122;DHT22;5615;49.304;10.576;2022-08-03T08:41:24;28.80;90.30
11122;DHT22;5615;49.304;10.576;2022-08-03T08:43:51;29.10;88.40
11122;DHT22;5615;49.304;10.576;2022-08-03T08:46:19;29.10;83.90
11122;DHT22;5615;49.304;10.576;2022-08-03T08:48:48;29.30;82.60
11122;DHT22;5615;49.304;10.576;2022-08-03T08:51:15;29.40;81.50
11122;DHT22;5615;49.304;10.576;2022-08-03T08:53:47;29.80;79.80
11122;DHT22;5615;49.304;10.576;2022-08-03T08:56:16;29.90;75.60
11122;DHT22;5615;49.304;10.576;2022-08-03T08:58:47;29.90;73.70
11122;DHT22;5615;49.304;10.576;2022-08-03T09:01:17;30.20;72.00
11122;DHT22;5615;49.304;10.576;2022-08-03T09:03:44;30.20;67.60
11122;DHT22;5615;49.304;10.576;2022-08-03T09:06:12;30.20;64.40
11122;DHT22;5615;49.304;10.576;2022-08-03T09:08:39;30.00;62.10
11122;DHT22;5615;49.304;10.576;2022-08-03T09:11:06;29.90;61.70
11122;DHT22;5615;49.304;10.576;2022-08-03T09:13:33;30.20;59.60
11122;DHT22;5615;49.304;10.576;2022-08-03T09:16:11;30.20;59.10
11122;DHT22;5615;49.304;10.576;2022-08-03T09:18:39;30.60;59.10
11122;DHT22;5615;49.304;10.576;2022-08-03T09:21:15;30.70;57.80
11122;DHT22;5615;49.304;10.576;2022-08-03T09:23:45;30.40;55.70
11122;DHT22;5615;49.304;10.576;2022-08-03T09:26:18;30.60;55.90
11122;DHT22;5615;49.304;10.576;2022-08-03T09:28:45;30.60;54.00
11122;DHT22;5615;49.304;10.576;2022-08-03T09:31:12;31.00;54.10
11122;DHT22;5615;49.304;10.576;2022-08-03T09:33:46;30.90;52.20
11122;DHT22;5615;49.304;10.576;2022-08-03T09:36:38;31.20;51.50
11122;DHT22;5615;49.304;10.576;2022-08-03T09:39:07;31.40;50.50
11122;DHT22;5615;49.304;10.576;2022-08-03T09:41:37;31.90;48.40
11122;DHT22;5615;49.304;10.576;2022-08-03T09:44:04;31.50;46.70
11122;DHT22;5615;49.304;10.576;2022-08-03T09:46:31;31.60;46.20
11122;DHT22;5615;49.304;10.576;2022-08-03T09:49:12;32.10;46.90
11122;DHT22;5615;49.304;10.576;2022-08-03T09:51:41;31.70;42.40
11122;DHT22;5615;49.304;10.576;2022-08-03T09:54:07;31.70;41.30
11122;DHT22;5615;49.304;10.576;2022-08-03T09:56:42;32.00;41.00
11122;DHT22;5615;49.304;10.576;2022-08-03T09:59:10;31.90;41.50
11122;DHT22;5615;49.304;10.576;2022-08-03T10:01:38;32.70;40.80
11122;DHT22;5615;49.304;10.576;2022-08-03T10:04:11;32.50;39.50
11122;DHT22;5615;49.304;10.576;2022-08-03T10:06:41;32.00;39.10
11122;DHT22;5615;49.304;10.576;2022-08-03T10:09:10;32.50;38.40
11122;DHT22;5615;49.304;10.576;2022-08-03T10:11:37;32.50;38.10
11122;DHT22;5615;49.304;10.576;2022-08-03T10:14:05;32.80;35.60
11122;DHT22;5615;49.304;10.576;2022-08-03T10:16:33;33.40;33.20
11122;DHT22;5615;49.304;10.576;2022-08-03T10:19:01;34.10;32.80
11122;DHT22;5615;49.304;10.576;2022-08-03T10:21:33;34.10;33.10
11122;DHT22;5615;49.304;10.576;2022-08-03T10:24:04;33.80;33.30
11122;DHT22;5615;49.304;10.576;2022-08-03T10:26:32;34.50;31.80
11122;DHT22;5615;49.304;10.576;2022-08-03T10:29:03;34.60;30.90
11122;DHT22;5615;49.304;10.576;2022-08-03T10:31:34;33.80;31.00
11122;DHT22;5615;49.304;10.576;2022-08-03T10:34:06;33.30;31.70
11122;DHT22;5615;49.304;10.576;2022-08-03T10:36:35;33.10;32.00
11122;DHT22;5615;49.304;10.576;2022-08-03T10:39:05;34.20;32.70
11122;DHT22;5615;49.304;10.576;2022-08-03T10:41:36;34.70;30.20
11122;DHT22;5615;49.304;10.576;2022-08-03T10:44:07;35.30;31.30
11122;DHT22;5615;49.304;10.576;2022-08-03T10:46:34;36.00;29.50
11122;DHT22;5615;49.304;10.576;2022-08-03T10:49:02;36.10;29.80
11122;DHT22;5615;49.304;10.576;2022-08-03T10:51:30;37.50;27.70
11122;DHT22;5615;49.304;10.576;2022-08-03T10:53:57;36.10;26.90
11122;DHT22;5615;49.304;10.576;2022-08-03T10:56:41;36.80;26.40
11122;DHT22;5615;49.304;10.576;2022-08-03T10:59:56;38.00;26.10
11122;DHT22;5615;49.304;10.576;2022-08-03T11:05:32;39.50;23.20
11122;DHT22;5615;49.304;10.576;2022-08-03T11:08:32;40.20;22.60
11122;DHT22;5615;49.304;10.576;2022-08-03T11:11:02;40.60;21.70
11122;DHT22;5615;49.304;10.576;2022-08-03T11:13:58;40.70;21.00
11122;DHT22;5615;49.304;10.576;2022-08-03T11:16:26;40.60;20.70
11122;DHT22;5615;49.304;10.576;2022-08-03T11:18:57;40.60;20.40
11122;DHT22;5615;49.304;10.576;2022-08-03T11:21:51;40.30;20.10
11122;DHT22;5615;49.304;10.576;2022-08-03T11:27:24;39.90;19.90
11122;DHT22;5615;49.304;10.576;2022-08-03T11:29:58;40.00;19.70
11122;DHT22;5615;49.304;10.576;2022-08-03T11:35:33;40.40;19.60
11122;DHT22;5615;49.304;10.576;2022-08-03T11:38:10;39.70;19.20
11122;DHT22;5615;49.304;10.576;2022-08-03T11:40:39;39.70;19.30
11122;DHT22;5615;49.304;10.576;2022-08-03T11:43:08;39.40;19.60
11122;DHT22;5615;49.304;10.576;2022-08-03T11:45:36;38.90;19.40
11122;DHT22;5615;49.304;10.576;2022-08-03T11:48:13;39.30;19.20
11122;DHT22;5615;49.304;10.576;2022-08-03T11:50:41;39.50;18.80
11122;DHT22;5615;49.304;10.576;2022-08-03T11:53:13;40.30;18.90
11122;DHT22;5615;49.304;10.576;2022-08-03T11:55:40;40.40;18.20
11122;DHT22;5615;49.304;10.576;2022-08-03T11:58:14;40.80;17.70
11122;DHT22;5615;49.304;10.576;2022-08-03T12:00:42;40.80;17.70
11122;DHT22;5615;49.304;10.576;2022-08-03T12:03:11;42.00;17.60
11122;DHT22;5615;49.304;10.576;2022-08-03T12:05:40;42.90;16.70
11122;DHT22;5615;49.304;10.576;2022-08-03T12:08:09;43.90;16.30
11122;DHT22;5615;49.304;10.576;2022-08-03T12:10:37;44.40;15.70
11122;DHT22;5615;49.304;10.576;2022-08-03T12:13:05;42.10;15.90
11122;DHT22;5615;49.304;10.576;2022-08-03T12:15:33;40.50;17.10
11122;DHT22;5615;49.304;10.576;2022-08-03T12:18:03;41.90;16.50
11122;DHT22;5615;49.304;10.576;2022-08-03T12:20:31;42.70;15.70
11122;DHT22;5615;49.304;10.576;2022-08-03T12:23:02;43.60;15.80
11122;DHT22;5615;49.304;10.576;2022-08-03T12:25:30;43.90;15.10
11122;DHT22;5615;49.304;10.576;2022-08-03T12:28:06;43.20;15.10
11122;DHT22;5615;49.304;10.576;2022-08-03T12:30:33;43.70;15.00
11122;DHT22;5615;49.304;10.576;2022-08-03T12:33:19;43.80;15.10
11122;DHT22;5615;49.304;10.576;2022-08-03T12:35:59;44.00;14.80
11122;DHT22;5615;49.304;10.576;2022-08-03T12:38:26;44.60;14.90
11122;DHT22;5615;49.304;10.576;2022-08-03T12:41:03;45.50;14.20
11122;DHT22;5615;49.304;10.576;2022-08-03T12:43:30;44.70;13.70
11122;DHT22;5615;49.304;10.576;2022-08-03T12:46:12;43.40;14.20
11122;DHT22;5615;49.304;10.576;2022-08-03T12:49:05;43.50;14.40
11122;DHT22;5615;49.304;10.576;2022-08-03T12:51:35;44.40;14.10
11122;DHT22;5615;49.304;10.576;2022-08-03T12:54:02;43.40;14.00
11122;DHT22;5615;49.304;10.576;2022-08-03T12:56:29;42.00;14.80
11122;DHT22;5615;49.304;10.576;2022-08-03T12:58:56;40.90;15.60
11122;DHT22;5615;49.304;10.576;2022-08-03T13:01:22;42.10;15.50
11122;DHT22;5615;49.304;10.576;2022-08-03T13:03:52;43.50;15.00
11122;DHT22;5615;49.304;10.576;2022-08-03T13:06:22;44.80;14.10
11122;DHT22;5615;49.304;10.576;2022-08-03T13:08:59;43.60;14.20
11122;DHT22;5615;49.304;10.576;2022-08-03T13:11:27;44.40;13.90
11122;DHT22;5615;49.304;10.576;2022-08-03T13:13:54;42.40;14.20
11122;DHT22;5615;49.304;10.576;2022-08-03T13:16:21;42.10;14.60
11122;DHT22;5615;49.304;10.576;2022-08-03T13:18:50;42.90;15.00
11122;DHT22;5615;49.304;10.576;2022-08-03T13:21:19;41.80;14.40
11122;DHT22;5615;49.304;10.576;2022-08-03T13:23:46;43.40;14.50
11122;DHT22;5615;49.304;10.576;2022-08-03T13:26:13;45.00;13.60
11122;DHT22;5615;49.304;10.576;2022-08-03T13:28:39;44.50;13.30
11122;DHT22;5615;49.304;10.576;2022-08-03T13:31:06;44.30;13.40
11122;DHT22;5615;49.304;10.576;2022-08-03T13:33:33;44.80;13.40
11122;DHT22;5615;49.304;10.576;2022-08-03T13:36:00;45.60;12.70
11122;DHT22;5615;49.304;10.576;2022-08-03T13:38:28;45.10;12.30
11122;DHT22;5615;49.304;10.576;2022-08-03T13:40:54;45.30;12.50
11122;DHT22;5615;49.304;10.576;2022-08-03T13:43:21;43.90;12.80
11122;DHT22;5615;49.304;10.576;2022-08-03T13:45:47;42.50;12.90
11122;DHT22;5615;49.304;10.576;2022-08-03T13:48:14;43.70;12.90
11122;DHT22;5615;49.304;10.576;2022-08-03T13:50:41;45.30;12.30
11122;DHT22;5615;49.304;10.576;2022-08-03T13:53:07;44.50;12.20
11122;DHT22;5615;49.304;10.576;2022-08-03T13:55:35;44.90;12.10
11122;DHT22;5615;49.304;10.576;2022-08-03T13:58:02;44.20;12.50
11122;DHT22;5615;49.304;10.576;2022-08-03T14:00:29;45.30;11.90
11122;DHT22;5615;49.304;10.576;2022-08-03T14:02:59;46.10;11.70
11122;DHT22;5615;49.304;10.576;2022-08-03T14:05:27;46.70;11.40
11122;DHT22;5615;49.304;10.576;2022-08-03T14:07:54;46.50;11.20
11122;DHT22;5615;49.304;10.576;2022-08-03T14:10:21;46.20;11.60
11122;DHT22;5615;49.304;10.576;2022-08-03T14:12:49;46.70;11.20
11122;DHT22;5615;49.304;10.576;2022-08-03T14:15:15;47.40;10.90
11122;DHT22;5615;49.304;10.576;2022-08-03T14:17:42;48.00;10.80
11122;DHT22;5615;49.304;10.576;2022-08-03T14:20:09;48.80;10.30
11122;DHT22;5615;49.304;10.576;2022-08-03T14:22:37;48.20;9.80
11122;DHT22;5615;49.304;10.576;2022-08-03T14:25:04;47.50;10.10
11122;DHT22;5615;49.304;10.576;2022-08-03T14:27:31;46.50;10.30
11122;DHT22;5615;49.304;10.576;2022-08-03T14:29:59;46.30;10.80
11122;DHT22;5615;49.304;10.576;2022-08-03T14:32:26;46.90;10.50
11122;DHT22;5615;49.304;10.576;2022-08-03T14:34:52;47.80;10.30
11122;DHT22;5615;49.304;10.576;2022-08-03T14:37:19;48.00;10.40
11122;DHT22;5615;49.304;10.576;2022-08-03T14:39:46;48.30;9.80
11122;DHT22;5615;49.304;10.576;2022-08-03T14:42:13;48.60;9.80
11122;DHT22;5615;49.304;10.576;2022-08-03T14:44:41;48.50;9.20
11122;DHT22;5615;49.304;10.576;2022-08-03T14:47:09;48.00;9.30
11122;DHT22;5615;49.304;10.576;2022-08-03T14:49:35;48.30;9.60
11122;DHT22;5615;49.304;10.576;2022-08-03T14:52:02;47.90;9.70
11122;DHT22;5615;49.304;10.576;2022-08-03T14:54:29;48.50;9.80
11122;DHT22;5615;49.304;10.576;2022-08-03T14:56:56;48.50;9.20
11122;DHT22;5615;49.304;10.576;2022-08-03T14:59:23;49.00;9.30
11122;DHT22;5615;49.304;10.576;2022-08-03T15:01:50;49.20;8.60
11122;DHT22;5615;49.304;10.576;2022-08-03T15:04:18;46.70;8.90
11122;DHT22;5615;49.304;10.576;2022-08-03T15:06:45;43.90;10.20
11122;DHT22;5615;49.304;10.576;2022-08-03T15:09:11;42.70;11.20
11122;DHT22;5615;49.304;10.576;2022-08-03T15:11:38;42.70;11.30
11122;DHT22;5615;49.304;10.576;2022-08-03T15:14:05;43.60;11.10
11122;DHT22;5615;49.304;10.576;2022-08-03T15:16:32;43.80;11.00
11122;DHT22;5615;49.304;10.576;2022-08-03T15:18:58;45.40;10.70
11122;DHT22;5615;49.304;10.576;2022-08-03T15:21:26;45.70;10.20
11122;DHT22;5615;49.304;10.576;2022-08-03T15:23:53;44.80;10.40
11122;DHT22;5615;49.304;10.576;2022-08-03T15:26:19;43.80;10.60
11122;DHT22;5615;49.304;10.576;2022-08-03T15:28:46;41.00;11.50
11122;DHT22;5615;49.304;10.576;2022-08-03T15:31:13;42.20;11.90
11122;DHT22;5615;49.304;10.576;2022-08-03T15:33:39;44.30;11.50
11122;DHT22;5615;49.304;10.576;2022-08-03T15:36:06;44.50;11.00
11122;DHT22;5615;49.304;10.576;2022-08-03T15:38:34;44.00;10.90
11122;DHT22;5615;49.304;10.576;2022-08-03T15:41:01;42.50;11.10
11122;DHT22;5615;49.304;10.576;2022-08-03T15:43:28;43.60;11.40
11122;DHT22;5615;49.304;10.576;2022-08-03T15:45:54;44.90;10.80
11122;DHT22;5615;49.304;10.576;2022-08-03T15:48:21;45.00;10.50
11122;DHT22;5615;49.304;10.576;2022-08-03T15:50:49;45.90;10.50
11122;DHT22;5615;49.304;10.576;2022-08-03T15:53:16;43.80;10.60